sensor_id;sensor_type;location;lat;lon;timestamp;P1;durP1;ratioP1;P2;durP2;ratioP2
8480;SDS011;4277;51.354;6.740;2023-06-26T00:01:08;6.68;;;6.07;;
8480;SDS011;4277;51.354;6.740;2023-06-26T00:03:34;6.93;;;6.00;;
8480;SDS011;4277;51.354;6.740;2023-06-26T00:06:00;7.32;;;6.50;;
8480;SDS011;4277;51.354;6.740;2023-06-26T00:08:27;6.53;;;5.88;;
8480;SDS011;4277;51.354;6.740;2023-06-26T00:10:52;6.18;;;5.65;;
8480;SDS011;4277;51.354;6.740;2023-06-26T00:13:19;6.45;;;5.90;;
8480;SDS011;4277;51.354;6.740;2023-06-26T00:15:45;6.80;;;6.20;;
8480;SDS011;4277;51.354;6.740;2023-06-26T00:18:11;7.05;;;6.38;;
8480;SDS011;4277;51.354;6.740;2023-06-26T00:20:36;7.45;;;6.75;;
8480;SDS011;4277;51.354;6.740;2023-06-26T00:23:02;7.35;;;6.55;;
8480;SDS011;4277;51.354;6.740;2023-06-26T00:25:35;6.53;;;5.97;;
8480;SDS011;4277;51.354;6.740;2023-06-26T00:28:01;10.10;;;6.50;;
8480;SDS011;4277;51.354;6.740;2023-06-26T00:30:27;6.22;;;5.65;;
8480;SDS011;4277;51.354;6.740;2023-06-26T00:32:53;7.13;;;6.43;;
8480;SDS011;4277;51.354;6.740;2023-06-26T00:35:19;6.30;;;5.70;;
8480;SDS011;4277;51.354;6.740;2023-06-26T00:37:45;9.00;;;6.30;;
8480;SDS011;4277;51.354;6.740;2023-06-26T00:40:12;8.18;;;6.60;;
8480;SDS011;4277;51.354;6.740;2023-06-26T00:42:38;7.55;;;6.85;;
8480;SDS011;4277;51.354;6.740;2023-06-26T00:45:04;7.47;;;6.75;;
8480;SDS011;4277;51.354;6.740;2023-06-26T00:47:30;8.60;;;6.50;;
8480;SDS011;4277;51.354;6.740;2023-06-26T00:49:56;7.75;;;7.05;;
8480;SDS011;4277;51.354;6.740;2023-06-26T00:52:22;7.45;;;6.85;;
8480;SDS011;4277;51.354;6.740;2023-06-26T00:54:48;7.20;;;6.50;;
8480;SDS011;4277;51.354;6.740;2023-06-26T00:57:16;8.10;;;6.88;;
8480;SDS011;4277;51.354;6.740;2023-06-26T00:59:42;7.43;;;6.72;;
8480;SDS011;4277;51.354;6.740;2023-06-26T01:02:08;7.20;;;6.45;;
8480;SDS011;4277;51.354;6.740;2023-06-26T01:04:34;8.10;;;6.80;;
8480;SDS011;4277;51.354;6.740;2023-06-26T01:07:01;10.18;;;6.90;;
8480;SDS011;4277;51.354;6.740;2023-06-26T01:09:27;7.68;;;7.05;;
8480;SDS011;4277;51.354;6.740;2023-06-26T01:11:54;9.93;;;6.75;;
8480;SDS011;4277;51.354;6.740;2023-06-26T01:14:20;8.32;;;7.10;;
8480;SDS011;4277;51.354;6.740;2023-06-26T01:16:46;6.97;;;6.38;;
8480;SDS011;4277;51.354;6.740;2023-06-26T01:19:19;7.47;;;6.80;;
8480;SDS011;4277;51.354;6.740;2023-06-26T01:21:49;9.07;;;6.90;;
8480;SDS011;4277;51.354;6.740;2023-06-26T01:24:17;7.05;;;6.45;;
8480;SDS011;4277;51.354;6.740;2023-06-26T01:26:52;7.78;;;7.07;;
8480;SDS011;4277;51.354;6.740;2023-06-26T01:29:18;8.25;;;6.25;;
8480;SDS011;4277;51.354;6.740;2023-06-26T01:31:45;8.68;;;6.65;;
8480;SDS011;4277;51.354;6.740;2023-06-26T01:34:14;7.95;;;6.30;;
8480;SDS011;4277;51.354;6.740;2023-06-26T01:36:41;7.40;;;6.70;;
8480;SDS011;4277;51.354;6.740;2023-06-26T01:39:07;7.63;;;6.40;;
8480;SDS011;4277;51.354;6.740;2023-06-26T01:41:33;8.63;;;6.97;;
8480;SDS011;4277;51.354;6.740;2023-06-26T01:49:08;7.63;;;6.32;;
8480;SDS011;4277;51.354;6.740;2023-06-26T01:51:37;7.43;;;6.72;;
8480;SDS011;4277;51.354;6.740;2023-06-26T01:54:04;8.65;;;7.13;;
8480;SDS011;4277;51.354;6.740;2023-06-26T01:56:34;7.07;;;6.38;;
8480;SDS011;4277;51.354;6.740;2023-06-26T01:59:01;7.43;;;6.72;;
8480;SDS011;4277;51.354;6.740;2023-06-26T02:01:27;8.07;;;6.57;;
8480;SDS011;4277;51.354;6.740;2023-06-26T02:03:53;7.85;;;7.00;;
8480;SDS011;4277;51.354;6.740;2023-06-26T02:06:19;7.00;;;6.30;;
8480;SDS011;4277;51.354;6.740;2023-06-26T02:08:45;7.53;;;6.90;;
8480;SDS011;4277;51.354;6.740;2023-06-26T02:11:11;7.03;;;6.43;;
8480;SDS011;4277;51.354;6.740;2023-06-26T02:13:37;8.35;;;7.32;;
8480;SDS011;4277;51.354;6.740;2023-06-26T02:16:03;7.47;;;6.82;;
8480;SDS011;4277;51.354;6.740;2023-06-26T02:18:29;7.68;;;6.97;;
8480;SDS011;4277;51.354;6.740;2023-06-26T02:20:54;8.20;;;7.40;;
8480;SDS011;4277;51.354;6.740;2023-06-26T02:23:20;7.30;;;6.70;;
8480;SDS011;4277;51.354;6.740;2023-06-26T02:25:46;7.88;;;7.03;;
8480;SDS011;4277;51.354;6.740;2023-06-26T02:28:12;8.02;;;7.32;;
8480;SDS011;4277;51.354;6.740;2023-06-26T02:30:37;7.00;;;6.40;;
8480;SDS011;4277;51.354;6.740;2023-06-26T02:33:03;7.10;;;6.50;;
8480;SDS011;4277;51.354;6.740;2023-06-26T02:35:29;7.60;;;6.90;;
8480;SDS011;4277;51.354;6.740;2023-06-26T02:37:54;8.10;;;7.03;;
8480;SDS011;4277;51.354;6.740;2023-06-26T02:40:20;6.90;;;6.30;;
8480;SDS011;4277;51.354;6.740;2023-06-26T02:42:46;8.13;;;7.30;;
8480;SDS011;4277;51.354;6.740;2023-06-26T02:45:12;6.95;;;6.25;;
8480;SDS011;4277;51.354;6.740;2023-06-26T02:47:37;7.80;;;6.50;;
8480;SDS011;4277;51.354;6.740;2023-06-26T02:50:05;7.45;;;6.82;;
8480;SDS011;4277;51.354;6.740;2023-06-26T02:52:31;7.97;;;7.03;;
8480;SDS011;4277;51.354;6.740;2023-06-26T02:54:56;7.30;;;6.60;;
8480;SDS011;4277;51.354;6.740;2023-06-26T02:57:22;8.57;;;7.07;;
8480;SDS011;4277;51.354;6.740;2023-06-26T02:59:47;8.40;;;6.63;;
8480;SDS011;4277;51.354;6.740;2023-06-26T03:02:13;7.65;;;6.47;;
8480;SDS011;4277;51.354;6.740;2023-06-26T03:04:39;9.77;;;7.47;;
8480;SDS011;4277;51.354;6.740;2023-06-26T03:07:07;7.75;;;6.85;;
8480;SDS011;4277;51.354;6.740;2023-06-26T03:09:33;7.45;;;6.30;;
8480;SDS011;4277;51.354;6.740;2023-06-26T03:11:59;8.45;;;6.63;;
8480;SDS011;4277;51.354;6.740;2023-06-26T03:14:24;9.32;;;6.18;;
8480;SDS011;4277;51.354;6.740;2023-06-26T03:16:51;7.18;;;6.47;;
8480;SDS011;4277;51.354;6.740;2023-06-26T03:19:17;9.00;;;6.40;;
8480;SDS011;4277;51.354;6.740;2023-06-26T03:21:43;8.98;;;6.68;;
8480;SDS011;4277;51.354;6.740;2023-06-26T03:24:09;6.93;;;6.22;;
8480;SDS011;4277;51.354;6.740;2023-06-26T03:26:34;8.02;;;6.28;;
8480;SDS011;4277;51.354;6.740;2023-06-26T03:29:00;7.07;;;6.40;;
8480;SDS011;4277;51.354;6.740;2023-06-26T03:31:25;6.72;;;6.18;;
8480;SDS011;4277;51.354;6.740;2023-06-26T03:33:51;8.95;;;6.63;;
8480;SDS011;4277;51.354;6.740;2023-06-26T03:36:17;8.05;;;6.00;;
8480;SDS011;4277;51.354;6.740;2023-06-26T03:38:43;8.15;;;6.50;;
8480;SDS011;4277;51.354;6.740;2023-06-26T03:41:08;8.45;;;6.30;;
8480;SDS011;4277;51.354;6.740;2023-06-26T03:43:35;10.85;;;7.22;;
8480;SDS011;4277;51.354;6.740;2023-06-26T03:46:01;6.85;;;6.25;;
8480;SDS011;4277;51.354;6.740;2023-06-26T03:48:27;7.18;;;6.38;;
8480;SDS011;4277;51.354;6.740;2023-06-26T03:50:52;7.03;;;6.32;;
8480;SDS011;4277;51.354;6.740;2023-06-26T03:53:18;7.25;;;6.53;;
8480;SDS011;4277;51.354;6.740;2023-06-26T03:55:44;8.52;;;6.53;;
8480;SDS011;4277;51.354;6.740;2023-06-26T03:58:09;7.05;;;6.22;;
8480;SDS011;4277;51.354;6.740;2023-06-26T04:00:35;9.43;;;6.80;;
8480;SDS011;4277;51.354;6.740;2023-06-26T04:03:00;7.25;;;6.55;;
8480;SDS011;4277;51.354;6.740;2023-06-26T04:05:27;7.35;;;6.65;;
8480;SDS011;4277;51.354;6.740;2023-06-26T04:07:53;7.40;;;6.43;;
8480;SDS011;4277;51.354;6.740;2023-06-26T04:10:19;8.50;;;6.85;;
8480;SDS011;4277;51.354;6.740;2023-06-26T04:12:46;7.80;;;7.00;;
8480;SDS011;4277;51.354;6.740;2023-06-26T04:15:13;13.27;;;7.00;;
8480;SDS011;4277;51.354;6.740;2023-06-26T04:17:38;8.55;;;7.20;;
8480;SDS011;4277;51.354;6.740;2023-06-26T04:20:04;9.38;;;7.43;;
8480;SDS011;4277;51.354;6.740;2023-06-26T04:22:33;7.70;;;7.00;;
8480;SDS011;4277;51.354;6.740;2023-06-26T04:25:02;6.85;;;6.22;;
8480;SDS011;4277;51.354;6.740;2023-06-26T04:27:28;7.88;;;6.97;;
8480;SDS011;4277;51.354;6.740;2023-06-26T04:29:54;7.50;;;6.57;;
8480;SDS011;4277;51.354;6.740;2023-06-26T04:32:19;10.57;;;7.00;;
8480;SDS011;4277;51.354;6.740;2023-06-26T04:34:45;8.85;;;6.70;;
8480;SDS011;4277;51.354;6.740;2023-06-26T04:37:10;7.78;;;7.07;;
8480;SDS011;4277;51.354;6.740;2023-06-26T04:39:36;9.05;;;6.88;;
8480;SDS011;4277;51.354;6.740;2023-06-26T04:42:02;7.22;;;6.50;;
8480;SDS011;4277;51.354;6.740;2023-06-26T04:44:29;6.30;;;5.70;;
8480;SDS011;4277;51.354;6.740;2023-06-26T04:46:54;6.20;;;5.35;;
8480;SDS011;4277;51.354;6.740;2023-06-26T04:49:20;7.07;;;5.65;;
8480;SDS011;4277;51.354;6.740;2023-06-26T04:51:46;10.18;;;5.47;;
8480;SDS011;4277;51.354;6.740;2023-06-26T04:54:11;7.13;;;5.40;;
8480;SDS011;4277;51.354;6.740;2023-06-26T04:56:37;8.27;;;5.72;;
8480;SDS011;4277;51.354;6.740;2023-06-26T04:59:05;5.95;;;5.32;;
8480;SDS011;4277;51.354;6.740;2023-06-26T05:01:30;8.13;;;5.82;;
8480;SDS011;4277;51.354;6.740;2023-06-26T05:03:57;8.77;;;5.40;;
8480;SDS011;4277;51.354;6.740;2023-06-26T05:06:23;9.88;;;5.45;;
8480;SDS011;4277;51.354;6.740;2023-06-26T05:08:49;8.63;;;5.20;;
8480;SDS011;4277;51.354;6.740;2023-06-26T05:11:14;5.45;;;4.78;;
8480;SDS011;4277;51.354;6.740;2023-06-26T05:13:40;7.20;;;5.28;;
8480;SDS011;4277;51.354;6.740;2023-06-26T05:16:05;6.60;;;4.88;;
8480;SDS011;4277;51.354;6.740;2023-06-26T05:18:34;6.82;;;4.70;;
8480;SDS011;4277;51.354;6.740;2023-06-26T05:21:00;8.60;;;4.85;;
8480;SDS011;4277;51.354;6.740;2023-06-26T05:23:26;6.93;;;5.05;;
8480;SDS011;4277;51.354;6.740;2023-06-26T05:25:55;6.70;;;5.22;;
8480;SDS011;4277;51.354;6.740;2023-06-26T05:28:21;6.00;;;4.90;;
8480;SDS011;4277;51.354;6.740;2023-06-26T05:30:49;9.05;;;5.13;;
8480;SDS011;4277;51.354;6.740;2023-06-26T05:33:15;8.80;;;5.20;;
8480;SDS011;4277;51.354;6.740;2023-06-26T05:35:43;6.35;;;4.47;;
8480;SDS011;4277;51.354;6.740;2023-06-26T05:38:10;8.27;;;4.57;;
8480;SDS011;4277;51.354;6.740;2023-06-26T05:40:38;8.05;;;4.88;;
8480;SDS011;4277;51.354;6.740;2023-06-26T05:43:05;7.18;;;4.22;;
8480;SDS011;4277;51.354;6.740;2023-06-26T05:45:31;7.72;;;4.40;;
8480;SDS011;4277;51.354;6.740;2023-06-26T05:47:57;7.18;;;4.70;;
8480;SDS011;4277;51.354;6.740;2023-06-26T05:50:22;7.30;;;4.53;;
8480;SDS011;4277;51.354;6.740;2023-06-26T05:52:48;6.35;;;4.55;;
8480;SDS011;4277;51.354;6.740;2023-06-26T05:55:14;7.18;;;4.60;;
8480;SDS011;4277;51.354;6.740;2023-06-26T05:57:40;5.22;;;4.43;;
8480;SDS011;4277;51.354;6.740;2023-06-26T06:00:06;6.97;;;4.60;;
8480;SDS011;4277;51.354;6.740;2023-06-26T06:02:35;8.02;;;4.68;;
8480;SDS011;4277;51.354;6.740;2023-06-26T06:05:02;7.43;;;4.57;;
8480;SDS011;4277;51.354;6.740;2023-06-26T06:07:28;8.30;;;4.60;;
8480;SDS011;4277;51.354;6.740;2023-06-26T06:09:53;7.68;;;5.00;;
8480;SDS011;4277;51.354;6.740;2023-06-26T06:12:19;8.20;;;5.00;;
8480;SDS011;4277;51.354;6.740;2023-06-26T06:14:45;9.95;;;4.60;;
8480;SDS011;4277;51.354;6.740;2023-06-26T06:17:10;8.25;;;4.50;;
8480;SDS011;4277;51.354;6.740;2023-06-26T06:19:36;7.10;;;4.80;;
8480;SDS011;4277;51.354;6.740;2023-06-26T06:22:01;7.38;;;4.68;;
8480;SDS011;4277;51.354;6.740;2023-06-26T06:24:27;8.50;;;4.88;;
8480;SDS011;4277;51.354;6.740;2023-06-26T06:26:52;7.35;;;4.53;;
8480;SDS011;4277;51.354;6.740;2023-06-26T06:29:18;9.05;;;4.57;;
8480;SDS011;4277;51.354;6.740;2023-06-26T06:31:44;7.68;;;4.97;;
8480;SDS011;4277;51.354;6.740;2023-06-26T06:34:10;7.03;;;4.93;;
8480;SDS011;4277;51.354;6.740;2023-06-26T06:36:36;7.97;;;4.70;;
8480;SDS011;4277;51.354;6.740;2023-06-26T06:39:02;8.50;;;5.00;;
8480;SDS011;4277;51.354;6.740;2023-06-26T06:41:28;8.52;;;5.22;;
8480;SDS011;4277;51.354;6.740;2023-06-26T06:43:54;7.75;;;4.82;;
8480;SDS011;4277;51.354;6.740;2023-06-26T06:46:19;7.82;;;4.65;;
8480;SDS011;4277;51.354;6.740;2023-06-26T06:48:45;7.88;;;4.80;;
8480;SDS011;4277;51.354;6.740;2023-06-26T06:51:11;9.75;;;4.90;;
8480;SDS011;4277;51.354;6.740;2023-06-26T06:53:37;7.40;;;4.75;;
8480;SDS011;4277;51.354;6.740;2023-06-26T06:56:03;7.95;;;4.80;;
8480;SDS011;4277;51.354;6.740;2023-06-26T06:58:28;10.43;;;5.07;;
8480;SDS011;4277;51.354;6.740;2023-06-26T07:00:59;9.90;;;5.07;;
8480;SDS011;4277;51.354;6.740;2023-06-26T07:03:24;7.82;;;4.60;;
8480;SDS011;4277;51.354;6.740;2023-06-26T07:05:50;8.25;;;4.45;;
8480;SDS011;4277;51.354;6.740;2023-06-26T07:08:15;6.85;;;4.25;;
8480;SDS011;4277;51.354;6.740;2023-06-26T07:10:41;9.05;;;5.10;;
8480;SDS011;4277;51.354;6.740;2023-06-26T07:13:07;10.95;;;4.85;;
8480;SDS011;4277;51.354;6.740;2023-06-26T07:15:32;9.70;;;4.70;;
8480;SDS011;4277;51.354;6.740;2023-06-26T07:17:58;7.35;;;4.60;;
8480;SDS011;4277;51.354;6.740;2023-06-26T07:20:23;8.60;;;4.82;;
8480;SDS011;4277;51.354;6.740;2023-06-26T07:22:49;10.02;;;5.47;;
8480;SDS011;4277;51.354;6.740;2023-06-26T07:25:15;7.78;;;5.30;;
8480;SDS011;4277;51.354;6.740;2023-06-26T07:27:40;6.88;;;4.65;;
8480;SDS011;4277;51.354;6.740;2023-06-26T07:30:07;7.20;;;4.68;;
8480;SDS011;4277;51.354;6.740;2023-06-26T07:32:36;8.93;;;4.97;;
8480;SDS011;4277;51.354;6.740;2023-06-26T07:35:03;12.57;;;6.00;;
8480;SDS011;4277;51.354;6.740;2023-06-26T07:37:29;10.68;;;5.22;;
8480;SDS011;4277;51.354;6.740;2023-06-26T07:39:55;19.27;;;5.38;;
8480;SDS011;4277;51.354;6.740;2023-06-26T07:42:20;12.95;;;5.32;;
8480;SDS011;4277;51.354;6.740;2023-06-26T07:44:46;9.60;;;5.40;;
8480;SDS011;4277;51.354;6.740;2023-06-26T07:47:12;9.70;;;5.07;;
8480;SDS011;4277;51.354;6.740;2023-06-26T07:49:38;10.50;;;4.97;;
8480;SDS011;4277;51.354;6.740;2023-06-26T07:52:04;11.98;;;5.25;;
8480;SDS011;4277;51.354;6.740;2023-06-26T07:54:30;10.80;;;4.95;;
8480;SDS011;4277;51.354;6.740;2023-06-26T07:56:59;9.82;;;4.90;;
8480;SDS011;4277;51.354;6.740;2023-06-26T07:59:27;8.05;;;5.13;;
8480;SDS011;4277;51.354;6.740;2023-06-26T08:01:54;11.40;;;4.93;;
8480;SDS011;4277;51.354;6.740;2023-06-26T08:04:23;11.82;;;4.97;;
8480;SDS011;4277;51.354;6.740;2023-06-26T08:06:50;9.70;;;5.10;;
8480;SDS011;4277;51.354;6.740;2023-06-26T08:09:18;8.88;;;4.90;;
8480;SDS011;4277;51.354;6.740;2023-06-26T08:11:44;11.05;;;4.95;;
8480;SDS011;4277;51.354;6.740;2023-06-26T08:14:11;10.57;;;4.93;;
8480;SDS011;4277;51.354;6.740;2023-06-26T08:16:38;9.18;;;4.78;;
8480;SDS011;4277;51.354;6.740;2023-06-26T08:19:04;11.25;;;4.70;;
8480;SDS011;4277;51.354;6.740;2023-06-26T08:21:29;8.40;;;4.20;;
8480;SDS011;4277;51.354;6.740;2023-06-26T08:23:55;13.55;;;5.20;;
8480;SDS011;4277;51.354;6.740;2023-06-26T08:26:20;9.10;;;4.22;;
8480;SDS011;4277;51.354;6.740;2023-06-26T08:28:46;8.95;;;3.97;;
8480;SDS011;4277;51.354;6.740;2023-06-26T08:31:11;8.10;;;3.72;;
8480;SDS011;4277;51.354;6.740;2023-06-26T08:33:37;13.82;;;4.07;;
8480;SDS011;4277;51.354;6.740;2023-06-26T08:36:03;9.65;;;3.83;;
8480;SDS011;4277;51.354;6.740;2023-06-26T08:38:28;10.80;;;4.18;;
8480;SDS011;4277;51.354;6.740;2023-06-26T08:40:54;8.07;;;3.50;;
8480;SDS011;4277;51.354;6.740;2023-06-26T08:43:19;8.73;;;3.72;;
8480;SDS011;4277;51.354;6.740;2023-06-26T08:45:46;8.48;;;3.40;;
8480;SDS011;4277;51.354;6.740;2023-06-26T08:48:16;9.10;;;3.65;;
8480;SDS011;4277;51.354;6.740;2023-06-26T08:50:42;6.72;;;3.08;;
8480;SDS011;4277;51.354;6.740;2023-06-26T08:55:52;8.30;;;3.25;;
8480;SDS011;4277;51.354;6.740;2023-06-26T08:58:18;11.90;;;3.70;;
8480;SDS011;4277;51.354;6.740;2023-06-26T09:00:44;8.80;;;3.65;;
8480;SDS011;4277;51.354;6.740;2023-06-26T09:03:10;9.45;;;3.60;;
8480;SDS011;4277;51.354;6.740;2023-06-26T09:05:36;9.05;;;3.50;;
8480;SDS011;4277;51.354;6.740;2023-06-26T09:08:02;7.38;;;3.50;;
8480;SDS011;4277;51.354;6.740;2023-06-26T09:10:28;6.55;;;3.53;;
8480;SDS011;4277;51.354;6.740;2023-06-26T09:12:57;10.80;;;3.60;;
8480;SDS011;4277;51.354;6.740;2023-06-26T09:15:23;10.65;;;3.80;;
8480;SDS011;4277;51.354;6.740;2023-06-26T09:17:49;8.18;;;3.15;;
8480;SDS011;4277;51.354;6.740;2023-06-26T09:20:15;9.57;;;3.65;;
8480;SDS011;4277;51.354;6.740;2023-06-26T09:22:42;6.95;;;2.92;;
8480;SDS011;4277;51.354;6.740;2023-06-26T09:25:09;6.35;;;3.58;;
8480;SDS011;4277;51.354;6.740;2023-06-26T09:27:35;7.18;;;3.67;;
8480;SDS011;4277;51.354;6.740;2023-06-26T09:30:02;6.07;;;3.10;;
8480;SDS011;4277;51.354;6.740;2023-06-26T09:32:28;6.10;;;2.92;;
8480;SDS011;4277;51.354;6.740;2023-06-26T09:34:54;6.03;;;3.20;;
8480;SDS011;4277;51.354;6.740;2023-06-26T09:37:21;11.48;;;3.10;;
8480;SDS011;4277;51.354;6.740;2023-06-26T09:39:47;11.00;;;3.88;;
8480;SDS011;4277;51.354;6.740;2023-06-26T09:42:14;6.43;;;3.20;;
8480;SDS011;4277;51.354;6.740;2023-06-26T09:44:43;8.57;;;3.28;;
8480;SDS011;4277;51.354;6.740;2023-06-26T09:47:10;8.23;;;3.22;;
8480;SDS011;4277;51.354;6.740;2023-06-26T09:49:36;9.77;;;3.28;;
8480;SDS011;4277;51.354;6.740;2023-06-26T09:52:02;6.18;;;2.70;;
8480;SDS011;4277;51.354;6.740;2023-06-26T09:54:28;5.07;;;2.80;;
8480;SDS011;4277;51.354;6.740;2023-06-26T09:56:55;6.78;;;3.28;;
8480;SDS011;4277;51.354;6.740;2023-06-26T09:59:21;8.90;;;2.80;;
8480;SDS011;4277;51.354;6.740;2023-06-26T10:01:48;7.28;;;3.17;;
8480;SDS011;4277;51.354;6.740;2023-06-26T10:04:14;7.80;;;3.10;;
8480;SDS011;4277;51.354;6.740;2023-06-26T10:06:46;7.22;;;3.22;;
8480;SDS011;4277;51.354;6.740;2023-06-26T10:09:14;4.22;;;3.03;;
8480;SDS011;4277;51.354;6.740;2023-06-26T10:11:47;7.63;;;3.20;;
8480;SDS011;4277;51.354;6.740;2023-06-26T10:14:13;5.20;;;3.00;;
8480;SDS011;4277;51.354;6.740;2023-06-26T10:16:39;4.97;;;2.53;;
8480;SDS011;4277;51.354;6.740;2023-06-26T10:19:08;7.65;;;3.00;;
8480;SDS011;4277;51.354;6.740;2023-06-26T10:21:36;5.28;;;2.40;;
8480;SDS011;4277;51.354;6.740;2023-06-26T10:24:03;6.50;;;2.83;;
8480;SDS011;4277;51.354;6.740;2023-06-26T10:26:30;5.28;;;2.40;;
8480;SDS011;4277;51.354;6.740;2023-06-26T10:28:57;6.47;;;2.75;;
8480;SDS011;4277;51.354;6.740;2023-06-26T10:31:25;5.13;;;2.45;;
8480;SDS011;4277;51.354;6.740;2023-06-26T10:33:52;2.88;;;2.25;;
8480;SDS011;4277;51.354;6.740;2023-06-26T10:36:18;4.90;;;2.60;;
8480;SDS011;4277;51.354;6.740;2023-06-26T10:38:49;5.72;;;2.42;;
8480;SDS011;4277;51.354;6.740;2023-06-26T10:41:19;6.22;;;2.80;;
8480;SDS011;4277;51.354;6.740;2023-06-26T10:43:45;4.43;;;2.25;;
8480;SDS011;4277;51.354;6.740;2023-06-26T10:46:14;2.90;;;2.47;;
8480;SDS011;4277;51.354;6.740;2023-06-26T10:48:59;9.93;;;2.53;;
8480;SDS011;4277;51.354;6.740;2023-06-26T10:51:26;5.55;;;2.33;;
8480;SDS011;4277;51.354;6.740;2023-06-26T10:53:55;4.93;;;2.67;;
8480;SDS011;4277;51.354;6.740;2023-06-26T10:56:21;4.88;;;2.40;;
8480;SDS011;4277;51.354;6.740;2023-06-26T10:59:10;5.03;;;2.20;;
8480;SDS011;4277;51.354;6.740;2023-06-26T11:01:40;4.85;;;2.03;;
8480;SDS011;4277;51.354;6.740;2023-06-26T11:04:07;6.03;;;1.92;;
8480;SDS011;4277;51.354;6.740;2023-06-26T11:06:33;5.13;;;2.47;;
8480;SDS011;4277;51.354;6.740;2023-06-26T11:09:10;7.38;;;2.15;;
8480;SDS011;4277;51.354;6.740;2023-06-26T11:14:18;1.95;;;1.70;;
8480;SDS011;4277;51.354;6.740;2023-06-26T11:16:44;3.45;;;1.92;;
8480;SDS011;4277;51.354;6.740;2023-06-26T11:19:10;5.15;;;1.80;;
8480;SDS011;4277;51.354;6.740;2023-06-26T11:21:39;5.07;;;1.98;;
8480;SDS011;4277;51.354;6.740;2023-06-26T11:24:05;3.33;;;1.73;;
8480;SDS011;4277;51.354;6.740;2023-06-26T11:26:37;4.13;;;1.90;;
8480;SDS011;4277;51.354;6.740;2023-06-26T11:29:04;3.97;;;1.83;;
8480;SDS011;4277;51.354;6.740;2023-06-26T11:31:33;3.65;;;1.77;;
8480;SDS011;4277;51.354;6.740;2023-06-26T11:34:00;4.28;;;1.90;;
8480;SDS011;4277;51.354;6.740;2023-06-26T11:36:27;2.45;;;1.52;;
8480;SDS011;4277;51.354;6.740;2023-06-26T11:38:54;4.40;;;1.63;;
8480;SDS011;4277;51.354;6.740;2023-06-26T11:41:21;5.50;;;1.50;;
8480;SDS011;4277;51.354;6.740;2023-06-26T11:43:47;4.95;;;1.50;;
8480;SDS011;4277;51.354;6.740;2023-06-26T11:46:13;3.10;;;1.50;;
8480;SDS011;4277;51.354;6.740;2023-06-26T11:48:41;3.97;;;1.50;;
8480;SDS011;4277;51.354;6.740;2023-06-26T11:51:07;3.60;;;1.25;;
8480;SDS011;4277;51.354;6.740;2023-06-26T11:53:38;5.20;;;1.52;;
8480;SDS011;4277;51.354;6.740;2023-06-26T11:56:12;6.75;;;1.48;;
8480;SDS011;4277;51.354;6.740;2023-06-26T12:01:24;2.97;;;1.40;;
8480;SDS011;4277;51.354;6.740;2023-06-26T12:03:50;1.63;;;1.05;;
8480;SDS011;4277;51.354;6.740;2023-06-26T12:06:16;5.45;;;1.20;;
8480;SDS011;4277;51.354;6.740;2023-06-26T12:08:42;2.22;;;1.20;;
8480;SDS011;4277;51.354;6.740;2023-06-26T12:11:09;3.92;;;1.42;;
8480;SDS011;4277;51.354;6.740;2023-06-26T12:13:35;2.53;;;1.20;;
8480;SDS011;4277;51.354;6.740;2023-06-26T12:16:01;7.13;;;1.48;;
8480;SDS011;4277;51.354;6.740;2023-06-26T12:18:33;3.30;;;1.30;;
8480;SDS011;4277;51.354;6.740;2023-06-26T12:20:58;4.20;;;1.23;;
8480;SDS011;4277;51.354;6.740;2023-06-26T12:23:31;3.13;;;1.30;;
8480;SDS011;4277;51.354;6.740;2023-06-26T12:25:57;2.10;;;1.02;;
8480;SDS011;4277;51.354;6.740;2023-06-26T12:28:23;4.88;;;1.25;;
8480;SDS011;4277;51.354;6.740;2023-06-26T12:33:36;2.58;;;1.30;;
8480;SDS011;4277;51.354;6.740;2023-06-26T12:36:02;3.60;;;1.10;;
8480;SDS011;4277;51.354;6.740;2023-06-26T12:38:34;5.10;;;1.33;;
8480;SDS011;4277;51.354;6.740;2023-06-26T12:40:59;7.50;;;1.30;;
8480;SDS011;4277;51.354;6.740;2023-06-26T12:43:26;3.47;;;1.05;;
8480;SDS011;4277;51.354;6.740;2023-06-26T12:45:55;2.00;;;1.00;;
8480;SDS011;4277;51.354;6.740;2023-06-26T12:48:21;4.18;;;1.23;;
8480;SDS011;4277;51.354;6.740;2023-06-26T12:50:47;5.85;;;1.70;;
8480;SDS011;4277;51.354;6.740;2023-06-26T12:53:15;2.63;;;1.35;;
8480;SDS011;4277;51.354;6.740;2023-06-26T12:55:41;8.15;;;1.20;;
8480;SDS011;4277;51.354;6.740;2023-06-26T12:58:07;3.72;;;1.15;;
8480;SDS011;4277;51.354;6.740;2023-06-26T13:00:33;3.40;;;1.08;;
8480;SDS011;4277;51.354;6.740;2023-06-26T13:02:59;4.03;;;1.27;;
8480;SDS011;4277;51.354;6.740;2023-06-26T13:05:25;2.63;;;1.30;;
8480;SDS011;4277;51.354;6.740;2023-06-26T13:07:51;3.95;;;2.13;;
8480;SDS011;4277;51.354;6.740;2023-06-26T13:10:18;12.82;;;7.65;;
8480;SDS011;4277;51.354;6.740;2023-06-26T13:12:44;14.23;;;7.93;;
8480;SDS011;4277;51.354;6.740;2023-06-26T13:15:10;12.15;;;6.35;;
8480;SDS011;4277;51.354;6.740;2023-06-26T13:17:36;7.28;;;3.28;;
8480;SDS011;4277;51.354;6.740;2023-06-26T13:20:02;5.53;;;2.00;;
8480;SDS011;4277;51.354;6.740;2023-06-26T13:22:29;3.92;;;1.38;;
8480;SDS011;4277;51.354;6.740;2023-06-26T13:24:55;4.57;;;1.60;;
8480;SDS011;4277;51.354;6.740;2023-06-26T13:27:21;2.45;;;1.80;;
8480;SDS011;4277;51.354;6.740;2023-06-26T13:29:48;9.65;;;3.97;;
8480;SDS011;4277;51.354;6.740;2023-06-26T13:32:14;5.40;;;2.42;;
8480;SDS011;4277;51.354;6.740;2023-06-26T13:34:40;4.80;;;1.70;;
8480;SDS011;4277;51.354;6.740;2023-06-26T13:37:06;5.10;;;2.63;;
8480;SDS011;4277;51.354;6.740;2023-06-26T13:39:32;6.70;;;2.17;;
8480;SDS011;4277;51.354;6.740;2023-06-26T13:41:58;6.90;;;2.08;;
8480;SDS011;4277;51.354;6.740;2023-06-26T13:44:25;5.60;;;2.17;;
8480;SDS011;4277;51.354;6.740;2023-06-26T13:46:51;8.30;;;3.50;;
8480;SDS011;4277;51.354;6.740;2023-06-26T13:49:18;5.53;;;2.60;;
8480;SDS011;4277;51.354;6.740;2023-06-26T13:51:44;5.30;;;1.70;;
8480;SDS011;4277;51.354;6.740;2023-06-26T13:54:12;3.80;;;1.42;;
8480;SDS011;4277;51.354;6.740;2023-06-26T13:56:38;3.83;;;1.13;;
8480;SDS011;4277;51.354;6.740;2023-06-26T13:59:04;3.67;;;1.20;;
8480;SDS011;4277;51.354;6.740;2023-06-26T14:01:30;3.65;;;1.30;;
8480;SDS011;4277;51.354;6.740;2023-06-26T14:03:57;2.72;;;1.25;;
8480;SDS011;4277;51.354;6.740;2023-06-26T14:06:23;3.72;;;0.98;;
8480;SDS011;4277;51.354;6.740;2023-06-26T14:08:49;5.05;;;1.52;;
8480;SDS011;4277;51.354;6.740;2023-06-26T14:11:17;2.88;;;1.17;;
8480;SDS011;4277;51.354;6.740;2023-06-26T14:13:43;1.92;;;1.20;;
8480;SDS011;4277;51.354;6.740;2023-06-26T14:16:09;3.47;;;1.80;;
8480;SDS011;4277;51.354;6.740;2023-06-26T14:18:35;6.65;;;2.40;;
8480;SDS011;4277;51.354;6.740;2023-06-26T14:21:01;7.63;;;3.10;;
8480;SDS011;4277;51.354;6.740;2023-06-26T14:23:27;11.73;;;3.10;;
8480;SDS011;4277;51.354;6.740;2023-06-26T14:25:53;4.30;;;1.90;;
8480;SDS011;4277;51.354;6.740;2023-06-26T14:28:19;3.75;;;1.45;;
8480;SDS011;4277;51.354;6.740;2023-06-26T14:30:45;5.47;;;1.20;;
8480;SDS011;4277;51.354;6.740;2023-06-26T14:33:11;3.05;;;1.20;;
8480;SDS011;4277;51.354;6.740;2023-06-26T14:35:37;2.58;;;1.10;;
8480;SDS011;4277;51.354;6.740;2023-06-26T14:38:03;3.45;;;1.30;;
8480;SDS011;4277;51.354;6.740;2023-06-26T14:40:29;2.97;;;1.40;;
8480;SDS011;4277;51.354;6.740;2023-06-26T14:42:54;4.80;;;1.60;;
8480;SDS011;4277;51.354;6.740;2023-06-26T14:45:20;7.28;;;2.78;;
8480;SDS011;4277;51.354;6.740;2023-06-26T14:47:46;4.65;;;1.90;;
8480;SDS011;4277;51.354;6.740;2023-06-26T14:50:12;8.85;;;4.20;;
8480;SDS011;4277;51.354;6.740;2023-06-26T14:52:38;6.95;;;2.33;;
8480;SDS011;4277;51.354;6.740;2023-06-26T14:55:04;2.08;;;1.33;;
8480;SDS011;4277;51.354;6.740;2023-06-26T14:57:30;3.20;;;1.33;;
8480;SDS011;4277;51.354;6.740;2023-06-26T14:59:56;3.13;;;1.17;;
8480;SDS011;4277;51.354;6.740;2023-06-26T15:02:22;2.38;;;1.10;;
8480;SDS011;4277;51.354;6.740;2023-06-26T15:04:48;6.95;;;4.88;;
8480;SDS011;4277;51.354;6.740;2023-06-26T15:07:14;4.68;;;2.28;;
8480;SDS011;4277;51.354;6.740;2023-06-26T15:09:40;4.80;;;1.98;;
8480;SDS011;4277;51.354;6.740;2023-06-26T15:12:06;2.50;;;1.50;;
8480;SDS011;4277;51.354;6.740;2023-06-26T15:14:32;4.13;;;1.15;;
8480;SDS011;4277;51.354;6.740;2023-06-26T15:16:58;1.67;;;1.10;;
8480;SDS011;4277;51.354;6.740;2023-06-26T15:19:24;5.97;;;1.30;;
8480;SDS011;4277;51.354;6.740;2023-06-26T15:21:50;1.45;;;1.15;;
8480;SDS011;4277;51.354;6.740;2023-06-26T15:24:16;5.55;;;1.10;;
8480;SDS011;4277;51.354;6.740;2023-06-26T15:26:42;1.67;;;1.05;;